默认 日期 大小 文件数 浏览量 最新下载 xml
hdtracks磁力链接相关资源由用户搜索指令自动获取,结果来源于网络,本站不存储任何资料,亦不承担任何责任,请于24小时内删除,搜索到1869个磁力,用时1ms。
    {"cover.jpg": 389349, "#Moana.m3u": 3996, "folder.jpg": 98406, "foo_dr.txt": 4669, "42-More.flac": 76904242, "43-More.flac": 57975654, "08-Shiny.flac": 75088696, "47-Shiny.flac": 77862830, "18-Cavern.flac": 40092613, "50-Cavern.flac": 32577721, "15- ...
创建时间: 2018-11-03 16:58:33 大小:2.43 GB 文件数量:64 热度:13 最近下载:2023-04-07 19:00:18
    {"Cover.jpg": 401904, "folder.jpg": 214373, "foo_dr.txt": 1867, "01 - Liberty.flac": 83527430, "04 - Answers.flac": 120602645, "13 - Sisters.flac": 160787899, "17 - As Above.flac": 83083371, "18 - So Below.flac": 91366878, "03 - The Animal.flac": 163994002 ...
创建时间: 2018-11-03 17:37:56 大小:2.54 GB 文件数量:22 热度:28 最近下载:2024-05-24 21:28:02
    {"foo_dr.txt": 1423, "Lady Soul.pdf": 1073018, "09-Groovin'.flac": 125948018, "04-Niki Hoeky.flac": 112815504, "10-Ain't No Way.flac": 180861022, "01-Chain of Fools.flac": 121966915, "08-Come Back Baby.flac": 106154043, "03-People Get Ready.flac": ...
创建时间: 2018-11-03 17:49:52 大小:1.21 GB 文件数量:12 热度:16 最近下载:2025-08-03 09:24:07
    {"Front.jpg": 1751817, "Tech info": {"foo_dr.txt": 1311, "Spectrum1.png": 1813779, "Spectrum2.png": 2218909, "Spectrum3.png": 2332926, "Spectrum4.png": 2302217, "Spectrum5.png": 2525398, "Spectrum6.png": 2257420, "Spectrum7.png": 2440719, "Spectrum8.png": ...
创建时间: 2018-11-03 18:45:13 大小:1.34 GB 文件数量:24 热度:15 最近下载:2025-05-13 17:11:01
    {"folder.jpg": 250109, "foo_dr.txt": 1487, "04-Hold On.flac": 110106061, "03-Holy Man.flac": 94235219, "08-The Gypsy.flac": 89283261, "01-Stormbringer.flac": 88884500, "07-Highball Shooter.flac": 96817596, "05-Lady Double Dealer.flac": 74104102, "09- ...
创建时间: 2018-11-03 22:41:45 大小:750.67 MB 文件数量:11 热度:18 最近下载:2025-05-15 09:41:02
    {"cover.jpg": 112834, "05 - Clocks.flac": 237955849, "01 - Politik.flac": 244450602, "06 - Daylight.flac": 246876312, "09 - A Whisper.flac": 162870871, "11 - Amsterdam.flac": 236879006, "07 - Green Eyes.flac": 166577543, "02 - In My Place.flac": 176890764, ...
创建时间: 2018-11-03 23:22:49 大小:2.29 GB 文件数量:12 热度:36 最近下载:2025-08-07 00:59:03
    {"02-Help Me.flac": 138087275, "11-Twisted.flac": 95360192, "07-Down To You.flac": 210271245, "Court And Spark.pdf": 12016559, "06-Car On A Hill.flac": 120125884, "05-Same Situation.flac": 117681461, "10-Troubled Child.flac": 161082203, "01-Court And Spark ...
创建时间: 2018-11-03 23:32:10 大小:1.39 GB 文件数量:12 热度:34 最近下载:2025-05-14 01:33:02
    ... – 1983 - Hello Big Man (2015 HDtracks) [FLAC@192khz24bit].txt": 5376}
创建时间: 2018-11-04 00:02:57 大小:1.45 GB 文件数量:14 热度:35 最近下载:2025-08-04 02:25:02
    {"11-Fade Up.flac": 142351748, "08-The Opener.flac": 115649628, "04-Jungle Kitty.flac": 122338884, "01-Island Virgin.flac": 165985219, "02-Virgin Jungle.flac": 147780349, "07-Chelsea Bridge.flac": 148410697, "09-Mysterious Chick.flac": 130136349, "10- ...
创建时间: 2018-11-04 01:21:54 大小:1.39 GB 文件数量:12 热度:26 最近下载:2025-10-08 10:36:01
    {"folder.jpg": 655518, "05 - Tears.mp3": 8585141, "04 - Lessons.mp3": 9314485, "03 - The Twilight Zone.mp3": 7961375, "02 - A Passage To Bangkok.mp3": 8608170, "06 - Something For Nothing.mp3": 9631112, "01 - 2112 Overture - The Temples Of Syrinx - ...
创建时间: 2018-11-04 03:22:24 大小:89.8 MB 文件数量:7 热度:19 最近下载:2025-08-01 03:11:05
    {"08-Waves.flac": 55193728, "12-Smile.flac": 54875891, "Evil Friends.pdf": 2357272, "06-Atomic Man.flac": 43690912, "07-Sea of Air.flac": 46898180, "03-Evil Friends.flac": 39841419, "04-Modern Jesus.flac": 39644432, "05-Hip Hop Kids.flac": 43389296, "01- ...
创建时间: 2018-11-04 06:05:14 大小:543.16 MB 文件数量:13 热度:13 最近下载:2024-12-18 06:51:01
创建时间: 2018-11-04 06:12:33 大小:842.43 MB 文件数量:20 热度:32 最近下载:2025-07-29 22:32:02
    {"folder.jpg": 101348, "foo_dr.txt": 1092, "playlist.m3u": 199, "Liner NotesHX5099997997054.pdf": 3694343, "2 - Totem Pole [2012 Remaster].flac": 504212876, "5 - HocusPocus [2012 Remaster].flac": 317063142, "1 - The Sidewinder [2012 Remaster].flac": ...
创建时间: 2018-11-04 06:31:20 大小:1.87 GB 文件数量:9 热度:14 最近下载:2024-11-12 18:51:01
    {"17 - My Boy.flac": 77288750, "05 - Help Me.flac": 55059310, "11 - Loving Arms.flac": 62513426, "13 - Spanish Eyes.flac": 63101909, "01 - Promised Land.flac": 64218148, "14 - It's Midnight.flac": 83586525, "04 - Raised On Rock.flac": 59260464, "10 - You ...
创建时间: 2018-11-04 08:15:01 大小:1.08 GB 文件数量:19 热度:17 最近下载:2025-08-07 20:32:04
    {"05 - I Want You.flac": 71020307, "Blonde On Blonde.pdf": 1097036, "02 - Pledging My Time.flac": 87212240, "08 - Just Like a Woman.flac": 108340301, "03 - Visions of Johanna.flac": 167574699, "12 - Fourth Time Around.flac": 102329880, "11 - Absolutely ...
创建时间: 2018-11-04 09:17:48 大小:1.54 GB 文件数量:15 热度:21 最近下载:2025-06-17 21:16:01
创建时间: 2018-11-04 09:45:14 大小:558.58 MB 文件数量:25 热度:26 最近下载:2025-10-17 13:52:02
    {"foo_dr.txt": 1380, "07. Home.wav": 61574300, "03. Song on Fire.wav": 61136396, "04. Must Be Nice.wav": 58966250, "06. For the River.wav": 55271422, "05. After the Rain.wav": 56870858, "09. Silent Majority.wav": 61477714, "01. Feed the Machine.wav": ...
创建时间: 2018-11-04 10:16:55 大小:744.15 MB 文件数量:12 热度:24 最近下载:2025-05-30 10:23:02
    {"13-Hold On.flac": 104959139, "14-Cready Stomp.flac": 82215245, "01-Go (Remastered).flac": 77210529, "09-Rats (Remastered).flac": 99715905, "07-Blood (Remastered).flac": 70025532, "11-Leash (Remastered).flac": 76746126, "02-Animal (Remastered).flac": ...
创建时间: 2018-11-04 12:10:49 大小:1.31 GB 文件数量:15 热度:27 最近下载:2025-08-24 08:55:02
    {"folder.jpg": 284742, "foo_dr.txt": 1516, "04-Madness.flac": 64510172, "01-Lionheart.flac": 79176474, "11-Angel Cry.flac": 50138478, "Unholy Savior.pdf": 6800785, "09-Hero's Quest.flac": 41353512, "10-Far Far Away.flac": 60408326, "02-Unholy Savior.flac": ...
创建时间: 2018-11-04 12:30:07 大小:722.53 MB 文件数量:15 热度:19 最近下载:2025-03-21 01:30:03
    {"folder.jpg": 39350, "11 - Skylark.flac": 212579134, "01 - Comes Love.flac": 201630021, "13 - Be My Baby.flac": 191950000, "14 - Gentle Rain.flac": 165216873, "03 - Easy to Love.flac": 226357307, "08 - Black Coffee.flac": 266354889, "05 - Lazy Afternoon. ...
创建时间: 2018-11-04 12:34:44 大小:2.48 GB 文件数量:16 热度:21 最近下载:2025-03-03 19:43:01